Terminal Aerodrome Forecast
Issued by NWS

Home | Current Version | Previous Version | Text Only | Print | Product List | Glossary On
Versions: 1 2 3 4 5 6 7 8 9 10 11 12 13 14 15 16 17 18 19 20 21 22 23 24 25 26
000
FTUS45 KFGZ 042013 AAA
TAFSEZ
TAF AMD
KSEZ 042013Z 0420/0518 VRB06KT P6SM SCT025 BKN035
      TEMPO 0421/0501 VRB15G25KT 6SM -TSRA OVC025CB
     FM050100 19010KT P6SM SCT030 BKN045
     FM050900 VRB04KT 6SM -SHRA BR SCT015 BKN020 OVC035
      TEMPO 0512/0516 3SM RA BR OVC015=

USA.gov is the U.S. government's official web portal to all federal, state and local government web resources and services.